createdAt,value
2023-01-11T00:00:48.131Z,10.60
2023-01-11T00:01:53.480Z,10.60
2023-01-11T00:02:58.969Z,10.60
2023-01-11T00:04:00.827Z,10.60
2023-01-11T00:05:07.233Z,10.60
2023-01-11T00:06:10.409Z,10.60
2023-01-11T00:07:12.123Z,10.60
2023-01-11T00:08:13.937Z,10.60
2023-01-11T00:09:16.087Z,10.70
2023-01-11T00:10:18.660Z,10.70
2023-01-11T00:11:20.371Z,10.70
2023-01-11T00:12:22.187Z,10.70
2023-01-11T00:13:24.145Z,10.70
2023-01-11T00:14:26.112Z,10.70
2023-01-11T00:15:28.206Z,10.70
2023-01-11T00:16:30.053Z,10.70
2023-01-11T00:17:31.833Z,10.70
2023-01-11T00:18:33.560Z,10.70
2023-01-11T00:19:35.302Z,10.70
2023-01-11T00:20:41.197Z,10.70
2023-01-11T00:21:42.890Z,10.70
2023-01-11T00:22:44.676Z,10.80
2023-01-11T00:23:49.338Z,10.80
2023-01-11T00:24:51.233Z,10.80
2023-01-11T00:25:53.076Z,10.80
2023-01-11T00:26:54.880Z,10.80
2023-01-11T00:27:56.758Z,10.80
2023-01-11T00:28:58.626Z,10.80
2023-01-11T00:30:00.534Z,10.80
2023-01-11T00:31:02.787Z,10.80
2023-01-11T00:32:04.861Z,10.80
2023-01-11T00:33:06.672Z,10.90
2023-01-11T00:34:08.417Z,10.80
2023-01-11T00:35:10.885Z,10.80
2023-01-11T00:36:13.054Z,10.90
2023-01-11T00:37:14.867Z,10.90
2023-01-11T00:38:37.459Z,10.90
2023-01-11T00:39:39.343Z,10.90
2023-01-11T00:40:41.060Z,10.90
2023-01-11T00:42:01.517Z,10.90
2023-01-11T00:43:21.515Z,10.90
2023-01-11T00:44:41.761Z,10.90
2023-01-11T00:46:01.995Z,10.90
2023-01-11T00:47:23.238Z,10.90
2023-01-11T00:48:25.108Z,10.90
2023-01-11T00:49:26.802Z,10.90
2023-01-11T00:50:34.282Z,11.00
2023-01-11T00:51:36.062Z,11.00
2023-01-11T00:52:37.839Z,10.90
2023-01-11T00:53:39.544Z,11.00
2023-01-11T00:54:42.306Z,11.00
2023-01-11T00:55:44.026Z,11.00
2023-01-11T00:56:46.788Z,11.00
2023-01-11T00:57:48.797Z,11.00
2023-01-11T00:58:50.604Z,11.00
2023-01-11T00:59:52.351Z,11.00
2023-01-11T01:00:54.179Z,11.00
2023-01-11T01:01:55.946Z,11.00
2023-01-11T01:02:57.884Z,11.00
2023-01-11T01:04:03.644Z,11.00
2023-01-11T01:05:06.998Z,11.10
2023-01-11T01:06:08.927Z,11.00
2023-01-11T01:07:11.881Z,11.00
2023-01-11T01:08:13.628Z,11.10
2023-01-11T01:09:15.528Z,11.10
2023-01-11T01:10:18.259Z,11.10
2023-01-11T01:11:20.150Z,11.10
2023-01-11T01:12:40.588Z,11.10
2023-01-11T01:14:00.779Z,11.10
2023-01-11T01:15:03.559Z,11.10
2023-01-11T01:16:07.212Z,11.10
2023-01-11T01:17:09.454Z,11.10
2023-01-11T01:18:11.333Z,11.10
2023-01-11T01:19:13.541Z,11.10
2023-01-11T01:20:16.267Z,11.10
2023-01-11T01:21:18.147Z,11.10
2023-01-11T01:22:20.319Z,11.10
2023-01-11T01:23:22.018Z,11.10
2023-01-11T01:24:24.819Z,11.10
2023-01-11T01:25:27.422Z,11.10
2023-01-11T01:26:29.713Z,11.20
2023-01-11T01:27:31.476Z,11.10
2023-01-11T01:28:33.383Z,11.20
2023-01-11T01:29:35.207Z,11.20
2023-01-11T01:30:37.018Z,11.20
2023-01-11T01:31:38.928Z,11.20
2023-01-11T01:32:40.653Z,11.20
2023-01-11T01:33:42.799Z,11.20
2023-01-11T01:34:44.576Z,11.20
2023-01-11T01:35:46.303Z,11.20
2023-01-11T01:36:48.067Z,11.20
2023-01-11T01:37:49.862Z,11.20
2023-01-11T01:38:51.611Z,11.20
2023-01-11T01:39:54.750Z,11.20
2023-01-11T01:41:16.803Z,11.20
2023-01-11T01:42:21.035Z,11.20
2023-01-11T01:43:43.591Z,11.20
2023-01-11T01:45:04.031Z,11.30
2023-01-11T01:46:05.844Z,11.20
2023-01-11T01:47:07.847Z,11.20
2023-01-11T01:48:12.476Z,11.20
2023-01-11T01:49:16.291Z,11.20
2023-01-11T01:50:23.158Z,11.30
2023-01-11T01:51:32.404Z,11.30
2023-01-11T01:52:34.717Z,11.30
2023-01-11T01:53:40.912Z,11.30
2023-01-11T01:54:45.679Z,11.30
2023-01-11T01:55:54.869Z,11.30
2023-01-11T01:57:00.642Z,11.30
2023-01-11T01:58:06.772Z,11.30
2023-01-11T01:59:12.884Z,11.30
2023-01-11T02:00:15.179Z,11.30
2023-01-11T02:01:36.461Z,11.30
2023-01-11T02:02:44.580Z,11.30
2023-01-11T02:03:48.077Z,11.30
2023-01-11T02:04:50.106Z,11.30
2023-01-11T02:05:53.049Z,11.30
2023-01-11T02:07:06.895Z,11.30
2023-01-11T02:08:17.716Z,11.30
2023-01-11T02:09:26.103Z,11.30
2023-01-11T02:10:28.834Z,11.40
2023-01-11T02:11:31.648Z,11.40
2023-01-11T02:12:52.000Z,11.40
2023-01-11T02:13:56.868Z,11.40
2023-01-11T02:15:01.072Z,11.40
2023-01-11T02:16:08.524Z,11.40
2023-01-11T02:17:10.996Z,11.40
2023-01-11T02:18:13.870Z,11.40
2023-01-11T02:19:24.231Z,11.40
2023-01-11T02:20:31.696Z,11.40
2023-01-11T02:21:39.376Z,11.40
2023-01-11T02:23:06.879Z,11.40
2023-01-11T02:24:41.526Z,11.40
2023-01-11T02:26:10.657Z,11.40
2023-01-11T02:27:48.427Z,11.40
2023-01-11T02:29:13.988Z,11.40
2023-01-11T02:30:37.440Z,11.40
2023-01-11T02:32:02.811Z,11.40
2023-01-11T02:33:10.714Z,11.40
2023-01-11T02:34:28.460Z,11.40
2023-01-11T02:35:47.213Z,11.40
2023-01-11T02:37:01.348Z,11.40
2023-01-11T02:38:24.399Z,11.50
2023-01-11T02:40:07.063Z,11.40
2023-01-11T02:41:20.561Z,11.40
2023-01-11T02:42:43.390Z,11.40
2023-01-11T02:44:30.938Z,11.40
2023-01-11T02:45:59.218Z,11.50
2023-01-11T02:47:07.462Z,11.40
2023-01-11T02:48:35.922Z,11.50
2023-01-11T02:49:43.066Z,11.50
2023-01-11T02:51:08.740Z,11.40
2023-01-11T02:52:21.992Z,11.50
2023-01-11T02:53:47.460Z,11.50
2023-01-11T02:54:55.632Z,11.50
2023-01-11T02:56:04.836Z,11.50
2023-01-11T02:57:08.850Z,11.50
2023-01-11T02:58:12.511Z,11.50
2023-01-11T02:59:20.210Z,11.50
2023-01-11T03:00:23.157Z,11.50
2023-01-11T03:01:25.604Z,11.50
2023-01-11T03:02:27.588Z,11.50
2023-01-11T03:03:29.818Z,11.50
2023-01-11T03:04:34.485Z,11.60
2023-01-11T03:05:41.815Z,11.60
2023-01-11T03:06:43.954Z,11.60
2023-01-11T03:08:06.272Z,11.60
2023-01-11T03:09:45.925Z,11.60
2023-01-11T03:11:03.423Z,11.60
2023-01-11T03:12:29.712Z,11.60
2023-01-11T03:13:55.174Z,11.60
2023-01-11T03:15:30.962Z,11.60
2023-01-11T03:16:46.744Z,11.60
2023-01-11T03:18:12.022Z,11.60
2023-01-11T03:19:43.900Z,11.60
2023-01-11T03:20:54.579Z,11.60
2023-01-11T03:22:30.321Z,11.60
2023-01-11T03:23:50.966Z,11.60
2023-01-11T03:25:24.725Z,11.60
2023-01-11T03:26:33.053Z,11.60
2023-01-11T03:27:50.142Z,11.60
2023-01-11T03:29:00.619Z,11.60
2023-01-11T03:30:42.931Z,11.60
2023-01-11T03:31:50.533Z,11.60
2023-01-11T03:33:05.275Z,11.60
2023-01-11T03:34:37.680Z,11.70
2023-01-11T03:35:46.842Z,11.60
2023-01-11T03:36:57.888Z,11.70
2023-01-11T03:38:18.445Z,11.70
2023-01-11T03:39:40.003Z,11.70
2023-01-11T03:40:50.287Z,11.60
2023-01-11T03:41:57.525Z,11.70
2023-01-11T03:43:11.384Z,11.70
2023-01-11T03:44:14.582Z,11.70
2023-01-11T03:45:16.803Z,11.70
2023-01-11T03:46:24.980Z,11.70
2023-01-11T03:47:29.550Z,11.70
2023-01-11T03:48:39.883Z,11.70
2023-01-11T03:49:58.568Z,11.70
2023-01-11T03:51:03.818Z,11.70
2023-01-11T03:52:09.829Z,11.70
2023-01-11T03:53:15.021Z,11.70
2023-01-11T03:54:21.869Z,11.70
2023-01-11T03:55:26.699Z,11.70
2023-01-11T03:56:47.956Z,11.70
2023-01-11T03:57:51.559Z,11.80
2023-01-11T03:58:53.340Z,11.70
2023-01-11T03:59:55.127Z,11.70
2023-01-11T04:00:58.667Z,11.80
2023-01-11T04:02:02.432Z,11.80
2023-01-11T04:03:06.407Z,11.70
2023-01-11T04:04:08.239Z,11.80
2023-01-11T04:05:11.037Z,11.70
2023-01-11T04:06:13.230Z,11.80
2023-01-11T04:07:14.959Z,11.70
2023-01-11T04:08:16.749Z,11.80
2023-01-11T04:09:19.851Z,11.80
2023-01-11T04:10:21.584Z,11.80
2023-01-11T04:11:23.320Z,11.80
2023-01-11T04:12:25.683Z,11.80
2023-01-11T04:13:27.498Z,11.80
2023-01-11T04:14:30.030Z,11.80
2023-01-11T04:15:34.567Z,11.80
2023-01-11T04:16:36.374Z,11.80
2023-01-11T04:17:38.077Z,11.80
2023-01-11T04:18:39.890Z,11.80
2023-01-11T04:19:42.142Z,11.80
2023-01-11T04:20:46.356Z,11.80
2023-01-11T04:21:48.113Z,11.80
2023-01-11T04:22:50.132Z,11.80
2023-01-11T04:23:51.880Z,11.80
2023-01-11T04:24:53.635Z,11.80
2023-01-11T04:25:55.702Z,11.80
2023-01-11T04:26:57.509Z,11.80
2023-01-11T04:27:59.539Z,11.80
2023-01-11T04:29:01.383Z,11.80
2023-01-11T04:30:03.819Z,11.80
2023-01-11T04:31:05.624Z,11.80
2023-01-11T04:32:07.528Z,11.80
2023-01-11T04:33:13.004Z,11.80
2023-01-11T04:34:14.858Z,11.80
2023-01-11T04:35:16.724Z,11.80
2023-01-11T04:36:18.721Z,11.80
2023-01-11T04:37:20.513Z,11.80
2023-01-11T04:38:25.377Z,11.80
2023-01-11T04:39:27.125Z,11.80
2023-01-11T04:40:28.870Z,11.80
2023-01-11T04:41:50.476Z,11.80
2023-01-11T04:42:52.608Z,11.80
2023-01-11T04:43:56.659Z,11.70
2023-01-11T04:44:58.868Z,11.70
2023-01-11T04:46:02.005Z,11.70
2023-01-11T04:47:03.949Z,11.70
2023-01-11T04:48:06.248Z,11.70
2023-01-11T04:49:08.030Z,11.70
2023-01-11T04:50:11.753Z,11.70
2023-01-11T04:51:13.582Z,11.70
2023-01-11T04:52:17.163Z,11.70
2023-01-11T04:53:18.878Z,11.70
2023-01-11T04:54:20.665Z,11.70
2023-01-11T04:55:22.461Z,11.70
2023-01-11T04:56:25.715Z,11.70
2023-01-11T04:57:27.422Z,11.70
2023-01-11T04:58:30.848Z,11.70
2023-01-11T04:59:33.920Z,11.70
2023-01-11T05:00:35.646Z,11.60
2023-01-11T05:01:37.413Z,11.60
2023-01-11T05:02:40.134Z,11.60
2023-01-11T05:03:42.173Z,11.60
2023-01-11T05:04:47.207Z,11.60
2023-01-11T05:05:59.491Z,11.60
2023-01-11T05:07:03.063Z,11.60
2023-01-11T05:08:05.027Z,11.60
2023-01-11T05:09:12.068Z,11.60
2023-01-11T05:10:14.073Z,11.70
2023-01-11T05:11:17.561Z,11.60
2023-01-11T05:12:19.249Z,11.60
2023-01-11T05:13:21.890Z,11.60
2023-01-11T05:14:23.881Z,11.60
2023-01-11T05:15:27.372Z,11.60
2023-01-11T05:16:29.219Z,11.60
2023-01-11T05:17:31.304Z,11.60
2023-01-11T05:18:33.123Z,11.60
2023-01-11T05:19:34.901Z,11.60
2023-01-11T05:20:36.699Z,11.60
2023-01-11T05:21:40.458Z,11.60
2023-01-11T05:22:42.397Z,11.60
2023-01-11T05:23:46.199Z,11.60
2023-01-11T05:24:48.033Z,11.60
2023-01-11T05:25:49.878Z,11.50
2023-01-11T05:26:52.714Z,11.60
2023-01-11T05:27:54.497Z,11.50
2023-01-11T05:28:58.955Z,11.50
2023-01-11T05:30:00.752Z,11.50
2023-01-11T05:31:02.873Z,11.50
2023-01-11T05:32:05.118Z,11.50
2023-01-11T05:33:06.875Z,11.50
2023-01-11T05:34:12.456Z,11.50
2023-01-11T05:35:15.772Z,11.50
2023-01-11T05:36:21.864Z,11.50
2023-01-11T05:37:24.895Z,11.50
2023-01-11T05:38:27.237Z,11.50
2023-01-11T05:39:29.059Z,11.50
2023-01-11T05:40:31.703Z,11.50
2023-01-11T05:41:34.041Z,11.50
2023-01-11T05:42:35.782Z,11.40
2023-01-11T05:43:56.660Z,11.40
2023-01-11T05:45:17.463Z,11.50
2023-01-11T05:46:19.550Z,11.40
2023-01-11T05:47:21.351Z,11.40
2023-01-11T05:48:23.870Z,11.40
2023-01-11T05:49:25.821Z,11.40
2023-01-11T05:50:27.726Z,11.40
2023-01-11T05:51:31.877Z,11.40
2023-01-11T05:52:34.089Z,11.40
2023-01-11T05:53:35.877Z,11.40
2023-01-11T05:54:37.991Z,11.40
2023-01-11T05:55:40.243Z,11.40
2023-01-11T05:56:43.143Z,11.40
2023-01-11T05:57:45.370Z,11.40
2023-01-11T05:58:51.990Z,11.40
2023-01-11T05:59:53.759Z,11.30
2023-01-11T06:00:56.181Z,11.30
2023-01-11T06:01:58.000Z,11.30
2023-01-11T06:03:02.003Z,11.30
2023-01-11T06:04:03.854Z,11.30
2023-01-11T06:05:06.629Z,11.30
2023-01-11T06:06:08.738Z,11.30
2023-01-11T06:07:10.737Z,11.30
2023-01-11T06:08:13.253Z,11.30
2023-01-11T06:09:16.396Z,11.30
2023-01-11T06:10:19.651Z,11.30
2023-01-11T06:11:21.527Z,11.30
2023-01-11T06:12:23.265Z,11.30
2023-01-11T06:13:28.763Z,11.20
2023-01-11T06:14:30.542Z,11.20
2023-01-11T06:15:32.329Z,11.20
2023-01-11T06:16:34.107Z,11.20
2023-01-11T06:17:35.976Z,11.20
2023-01-11T06:18:42.917Z,11.20
2023-01-11T06:19:44.725Z,11.20
2023-01-11T06:20:52.483Z,11.20
2023-01-11T06:21:54.396Z,11.20
2023-01-11T06:22:56.217Z,11.20
2023-01-11T06:23:58.107Z,11.20
2023-01-11T06:24:59.826Z,11.10
2023-01-11T06:26:06.562Z,11.10
2023-01-11T06:27:08.338Z,11.10
2023-01-11T06:28:10.380Z,11.10
2023-01-11T06:29:12.532Z,11.10
2023-01-11T06:30:14.403Z,11.10
2023-01-11T06:31:18.048Z,11.10
2023-01-11T06:32:20.100Z,11.10
2023-01-11T06:33:23.934Z,11.00
2023-01-11T06:34:25.874Z,11.00
2023-01-11T06:35:28.451Z,11.00
2023-01-11T06:36:30.240Z,11.00
2023-01-11T06:37:32.638Z,11.00
2023-01-11T06:38:34.722Z,10.90
2023-01-11T06:39:36.585Z,10.90
2023-01-11T06:40:40.112Z,10.90
2023-01-11T06:41:41.988Z,10.90
2023-01-11T06:42:43.948Z,10.80
2023-01-11T06:43:46.554Z,10.90
2023-01-11T06:44:48.303Z,10.80
2023-01-11T06:45:50.378Z,10.80
2023-01-11T06:46:52.780Z,10.80
2023-01-11T06:47:54.542Z,10.80
2023-01-11T06:48:56.325Z,10.80
2023-01-11T06:49:58.115Z,10.80
2023-01-11T06:50:59.857Z,10.70
2023-01-11T06:52:01.698Z,10.70
2023-01-11T06:53:03.583Z,10.70
2023-01-11T06:54:05.775Z,10.70
2023-01-11T06:55:08.119Z,10.70
2023-01-11T06:56:15.498Z,10.70
2023-01-11T06:57:17.279Z,10.70
2023-01-11T06:58:20.035Z,10.70
2023-01-11T06:59:21.935Z,10.70
2023-01-11T07:00:24.080Z,10.70
2023-01-11T07:01:28.733Z,10.60
2023-01-11T07:02:30.907Z,10.60
2023-01-11T07:03:32.965Z,10.60
2023-01-11T07:04:34.850Z,10.60
2023-01-11T07:05:36.943Z,10.60
2023-01-11T07:06:38.742Z,10.50
2023-01-11T07:07:41.746Z,10.50
2023-01-11T07:08:43.588Z,10.50
2023-01-11T07:09:45.300Z,10.50
2023-01-11T07:10:47.371Z,10.50
2023-01-11T07:11:49.233Z,10.50
2023-01-11T07:12:51.846Z,10.50
2023-01-11T07:13:53.784Z,10.50
2023-01-11T07:14:55.546Z,10.40
2023-01-11T07:15:58.094Z,10.40
2023-01-11T07:16:59.979Z,10.40
2023-01-11T07:18:02.349Z,10.40
2023-01-11T07:19:08.871Z,10.40
2023-01-11T07:20:11.415Z,10.40
2023-01-11T07:21:13.342Z,10.40
2023-01-11T07:22:16.068Z,10.40
2023-01-11T07:23:17.866Z,10.30
2023-01-11T07:24:20.308Z,10.30
2023-01-11T07:25:22.088Z,10.30
2023-01-11T07:26:26.445Z,10.30
2023-01-11T07:27:28.649Z,10.30
2023-01-11T07:28:30.975Z,10.20
2023-01-11T07:29:34.040Z,10.20
2023-01-11T07:30:59.953Z,10.20
2023-01-11T07:32:02.282Z,10.20
2023-01-11T07:33:06.333Z,10.10
2023-01-11T07:34:09.929Z,10.10
2023-01-11T07:35:11.880Z,10.10
2023-01-11T07:36:13.946Z,10.10
2023-01-11T07:37:28.198Z,10.00
2023-01-11T07:38:33.562Z,10.00
2023-01-11T07:39:43.178Z,10.00
2023-01-11T07:40:45.385Z,10.00
2023-01-11T07:42:05.847Z,10.00
2023-01-11T07:43:11.540Z,9.90
2023-01-11T07:44:13.664Z,9.90
2023-01-11T07:45:15.533Z,9.90
2023-01-11T07:46:17.526Z,9.90
2023-01-11T07:47:19.326Z,9.80
2023-01-11T07:48:27.395Z,9.80
2023-01-11T07:49:29.528Z,9.80
2023-01-11T07:50:31.395Z,9.80
2023-01-11T07:51:33.721Z,9.80
2023-01-11T07:52:35.564Z,9.80
2023-01-11T07:53:37.461Z,9.80
2023-01-11T07:54:39.245Z,9.80
2023-01-11T07:55:41.431Z,9.70
2023-01-11T07:56:43.410Z,9.70
2023-01-11T07:57:45.143Z,9.70
2023-01-11T07:58:46.902Z,9.70
2023-01-11T07:59:48.709Z,9.70
2023-01-11T08:00:50.675Z,9.60
2023-01-11T08:01:52.609Z,9.60
2023-01-11T08:02:54.693Z,9.60
2023-01-11T08:03:57.293Z,9.60
2023-01-11T08:05:03.490Z,9.60
2023-01-11T08:06:06.041Z,9.60
2023-01-11T08:07:09.817Z,9.60
2023-01-11T08:08:12.884Z,9.60
2023-01-11T08:09:16.427Z,9.60
2023-01-11T08:10:18.404Z,9.60
2023-01-11T08:11:39.074Z,9.60
2023-01-11T08:13:07.392Z,9.60
2023-01-11T08:14:29.326Z,9.50
2023-01-11T08:15:32.546Z,9.50
2023-01-11T08:16:34.483Z,9.50
2023-01-11T08:17:38.614Z,9.50
2023-01-11T08:18:40.407Z,9.50
2023-01-11T08:19:45.295Z,9.50
2023-01-11T08:20:48.079Z,9.40
2023-01-11T08:21:51.122Z,9.50
2023-01-11T08:22:54.462Z,9.40
2023-01-11T08:23:59.334Z,9.50
2023-01-11T08:25:01.160Z,9.40
2023-01-11T08:26:02.935Z,9.40
2023-01-11T08:27:04.834Z,9.40
2023-01-11T08:28:09.233Z,9.40
2023-01-11T08:29:11.235Z,9.40
2023-01-11T08:30:13.367Z,9.40
2023-01-11T08:31:15.529Z,9.40
2023-01-11T08:32:17.375Z,9.40
2023-01-11T08:33:19.290Z,9.40
2023-01-11T08:34:21.291Z,9.40
2023-01-11T08:35:24.959Z,9.40
2023-01-11T08:36:27.543Z,9.40
2023-01-11T08:37:29.474Z,9.40
2023-01-11T08:38:31.571Z,9.40
2023-01-11T08:39:33.439Z,9.40
2023-01-11T08:40:35.837Z,9.40
2023-01-11T08:41:39.148Z,9.40
2023-01-11T08:42:40.865Z,9.40
2023-01-11T08:43:43.444Z,9.40
2023-01-11T08:44:46.466Z,9.30
2023-01-11T08:45:50.981Z,9.30
2023-01-11T08:46:55.097Z,9.30
2023-01-11T08:47:58.994Z,9.30
2023-01-11T08:49:02.582Z,9.30
2023-01-11T08:50:06.032Z,9.30
2023-01-11T08:51:08.332Z,9.30
2023-01-11T08:52:15.009Z,9.30
2023-01-11T08:53:16.860Z,9.30
2023-01-11T08:54:20.267Z,9.20
2023-01-11T08:55:22.013Z,9.20
2023-01-11T08:56:23.862Z,9.20
2023-01-11T08:57:25.588Z,9.20
2023-01-11T08:58:28.984Z,9.20
2023-01-11T08:59:30.838Z,9.20
2023-01-11T09:00:32.677Z,9.20
2023-01-11T09:01:35.231Z,9.20
2023-01-11T09:02:37.028Z,9.20
2023-01-11T09:03:38.748Z,9.20
2023-01-11T09:04:41.788Z,9.20
2023-01-11T09:05:43.590Z,9.20
2023-01-11T09:06:45.464Z,9.20
2023-01-11T09:07:47.497Z,9.20
2023-01-11T09:08:49.940Z,9.20
2023-01-11T09:09:52.436Z,9.20
2023-01-11T09:10:56.696Z,9.20
2023-01-11T09:12:01.188Z,9.20
2023-01-11T09:13:03.456Z,9.20
2023-01-11T09:14:05.630Z,9.20
2023-01-11T09:15:10.470Z,9.20
2023-01-11T09:16:12.423Z,9.20
2023-01-11T09:17:16.815Z,9.20
2023-01-11T09:18:18.957Z,9.20
2023-01-11T09:19:21.243Z,9.20
2023-01-11T09:20:24.115Z,9.20
2023-01-11T09:21:26.688Z,9.20
2023-01-11T09:22:30.331Z,9.30
2023-01-11T09:23:33.897Z,9.30
2023-01-11T09:24:37.437Z,9.30
2023-01-11T09:25:39.145Z,9.30
2023-01-11T09:26:43.305Z,9.30
2023-01-11T09:27:46.312Z,9.40
2023-01-11T09:28:48.368Z,9.40
2023-01-11T09:29:50.163Z,9.50
2023-01-11T09:30:53.635Z,9.60
2023-01-11T09:31:55.863Z,9.60
2023-01-11T09:32:58.281Z,9.70
2023-01-11T09:34:00.114Z,9.70
2023-01-11T09:35:03.576Z,9.80
2023-01-11T09:36:05.973Z,9.80
2023-01-11T09:37:07.942Z,9.80
2023-01-11T09:38:09.842Z,9.80
2023-01-11T09:39:14.566Z,9.80
2023-01-11T09:40:46.235Z,9.70
2023-01-11T09:41:50.626Z,9.80
2023-01-11T09:42:54.583Z,9.70
2023-01-11T09:44:05.574Z,9.70
2023-01-11T09:45:30.450Z,9.80
2023-01-11T09:46:33.443Z,9.80
2023-01-11T09:47:53.595Z,9.70
2023-01-11T09:48:59.894Z,9.80
2023-01-11T09:50:06.832Z,9.80
2023-01-11T09:51:12.508Z,9.80
2023-01-11T09:52:23.922Z,9.90
2023-01-11T09:53:36.289Z,9.90
2023-01-11T09:54:38.168Z,10.00
2023-01-11T09:55:42.953Z,10.00
2023-01-11T09:57:18.031Z,10.00
2023-01-11T09:58:51.610Z,10.00
2023-01-11T10:00:14.582Z,10.00
2023-01-11T10:01:41.510Z,10.00
2023-01-11T10:03:12.161Z,10.10
2023-01-11T10:04:43.140Z,10.20
2023-01-11T10:05:56.541Z,10.20
2023-01-11T10:07:30.681Z,10.30
2023-01-11T10:18:38.923Z,11.00
2023-01-11T10:18:39.893Z,10.70
2023-01-11T10:19:32.165Z,11.50
2023-01-11T10:20:36.793Z,12.10
2023-01-11T10:22:14.087Z,12.50
2023-01-11T10:23:42.321Z,12.60
2023-01-11T10:24:50.696Z,12.60
2023-01-11T10:25:56.960Z,12.70
2023-01-11T10:27:03.796Z,12.90
2023-01-11T10:28:17.418Z,13.30
2023-01-11T10:29:47.969Z,13.70
2023-01-11T10:30:57.021Z,14.10
2023-01-11T10:32:03.019Z,14.20
2023-01-11T10:33:15.052Z,14.20
2023-01-11T10:34:26.280Z,14.10
2023-01-11T10:35:59.905Z,14.00
2023-01-11T10:37:31.796Z,13.90
2023-01-11T10:38:46.751Z,13.60
2023-01-11T10:40:05.181Z,13.40
2023-01-11T10:41:34.158Z,13.20
2023-01-11T10:42:57.222Z,13.20
2023-01-11T10:44:34.399Z,13.20
2023-01-11T10:45:38.995Z,13.20
2023-01-11T10:46:45.936Z,13.20
2023-01-11T10:48:01.342Z,13.10
2023-01-11T10:49:30.086Z,13.00
2023-01-11T10:50:51.903Z,12.90
2023-01-11T10:51:57.915Z,12.70
2023-01-11T10:53:14.655Z,12.60
2023-01-11T10:54:23.247Z,12.40
2023-01-11T10:55:37.379Z,12.30
2023-01-11T10:57:14.136Z,12.10
2023-01-11T10:58:39.480Z,11.90
2023-01-11T10:59:56.221Z,11.70
2023-01-11T11:01:12.873Z,11.60
2023-01-11T11:02:49.264Z,11.40
2023-01-11T11:04:02.380Z,11.30
2023-01-11T11:05:41.577Z,11.30
2023-01-11T11:07:02.038Z,11.20
2023-01-11T11:08:26.837Z,11.10
2023-01-11T11:10:04.341Z,11.10
2023-01-11T11:11:15.176Z,11.00
2023-01-11T11:12:29.584Z,11.00
2023-01-11T11:13:55.899Z,11.10
2023-01-11T11:15:09.046Z,11.10
2023-01-11T11:16:23.210Z,11.10
2023-01-11T11:17:30.804Z,11.10
2023-01-11T11:18:32.602Z,11.10
2023-01-11T11:19:34.401Z,11.10
2023-01-11T11:20:36.339Z,11.00
2023-01-11T11:21:41.798Z,11.00
2023-01-11T11:22:45.174Z,11.00
2023-01-11T11:23:59.434Z,11.00
2023-01-11T11:25:05.445Z,11.00
2023-01-11T11:26:09.302Z,11.00
2023-01-11T11:27:38.241Z,10.90
2023-01-11T11:29:03.732Z,11.00
2023-01-11T11:30:10.356Z,11.00
2023-01-11T11:31:15.118Z,10.90
2023-01-11T11:32:29.257Z,10.90
2023-01-11T11:33:40.599Z,10.90
2023-01-11T11:34:50.921Z,10.90
2023-01-11T11:36:09.268Z,10.90
2023-01-11T11:37:25.159Z,11.00
2023-01-11T11:38:32.258Z,10.90
2023-01-11T11:39:34.309Z,10.90
2023-01-11T11:40:38.412Z,10.90
2023-01-11T11:41:56.257Z,10.90
2023-01-11T11:43:21.684Z,10.90
2023-01-11T11:44:26.153Z,10.90
2023-01-11T11:45:28.508Z,10.90
2023-01-11T11:46:30.408Z,10.90
2023-01-11T11:47:32.177Z,10.90
2023-01-11T11:48:34.852Z,10.90
2023-01-11T11:49:40.794Z,10.90
2023-01-11T11:50:45.133Z,10.90
2023-01-11T11:51:48.451Z,10.90
2023-01-11T11:53:05.347Z,10.90
2023-01-11T11:54:14.962Z,10.90
2023-01-11T11:55:18.891Z,10.90
2023-01-11T11:56:28.388Z,10.90
2023-01-11T11:57:38.504Z,11.00
2023-01-11T11:58:42.313Z,11.00
2023-01-11T11:59:47.323Z,11.00
2023-01-11T12:00:51.242Z,10.90
2023-01-11T12:02:01.068Z,10.90
2023-01-11T12:03:19.400Z,10.90
2023-01-11T12:04:44.657Z,10.90
2023-01-11T12:05:52.285Z,10.80
2023-01-11T12:07:09.105Z,10.80
2023-01-11T12:08:15.291Z,10.80
2023-01-11T12:09:28.992Z,10.70
2023-01-11T12:10:33.216Z,10.70
2023-01-11T12:11:39.328Z,10.70
2023-01-11T12:12:54.433Z,10.70
2023-01-11T12:14:17.563Z,10.70
2023-01-11T12:15:28.989Z,10.70
2023-01-11T12:16:35.597Z,10.70
2023-01-11T12:17:37.403Z,10.60
2023-01-11T12:18:42.922Z,10.60
2023-01-11T12:19:47.864Z,10.60
2023-01-11T12:20:51.539Z,10.70
2023-01-11T12:21:53.894Z,10.60
2023-01-11T12:23:12.585Z,10.60
2023-01-11T12:24:19.084Z,10.60
2023-01-11T12:25:28.817Z,10.60
2023-01-11T12:26:59.704Z,10.60
2023-01-11T12:28:19.669Z,10.70
2023-01-11T12:29:50.110Z,10.60
2023-01-11T12:31:23.082Z,10.60
2023-01-11T12:32:45.979Z,10.60
2023-01-11T12:34:16.626Z,10.60
2023-01-11T12:35:25.277Z,10.60
2023-01-11T12:36:30.955Z,10.60
2023-01-11T12:38:06.453Z,10.60
2023-01-11T12:39:48.865Z,10.60
2023-01-11T12:41:04.220Z,10.60
2023-01-11T12:42:31.185Z,10.60
2023-01-11T12:44:01.669Z,10.60
2023-01-11T12:45:21.189Z,10.60
2023-01-11T12:47:10.522Z,10.60
2023-01-11T12:48:42.950Z,10.60
2023-01-11T12:50:11.621Z,10.60
2023-01-11T12:51:36.716Z,10.60
2023-01-11T12:52:46.833Z,10.60
2023-01-11T12:53:55.366Z,10.60
2023-01-11T12:55:24.547Z,10.60
2023-01-11T12:56:36.855Z,10.60
2023-01-11T12:58:08.323Z,10.60
2023-01-11T12:59:29.133Z,10.60
2023-01-11T13:00:50.289Z,10.60
2023-01-11T13:02:29.652Z,10.60
2023-01-11T13:03:58.493Z,10.60
2023-01-11T13:05:19.780Z,10.60
2023-01-11T13:06:44.349Z,10.50
2023-01-11T13:08:04.237Z,10.50
2023-01-11T13:09:41.020Z,10.50
2023-01-11T13:10:56.502Z,10.50
2023-01-11T13:12:12.212Z,10.50
2023-01-11T13:13:28.285Z,10.50
2023-01-11T13:15:03.048Z,10.50
2023-01-11T13:16:04.741Z,10.50
2023-01-11T13:17:25.050Z,10.50
2023-01-11T13:19:00.013Z,10.50
2023-01-11T13:20:25.884Z,10.50
2023-01-11T13:21:43.218Z,10.50
2023-01-11T13:22:54.047Z,10.50
2023-01-11T13:24:02.418Z,10.40
2023-01-11T13:25:16.345Z,10.40
2023-01-11T13:26:25.347Z,10.40
2023-01-11T13:27:31.765Z,10.40
2023-01-11T13:28:38.943Z,10.40
2023-01-11T13:29:45.682Z,10.40
2023-01-11T13:30:48.442Z,10.40
2023-01-11T13:31:51.657Z,10.50
2023-01-11T13:33:00.279Z,10.50
2023-01-11T13:34:23.662Z,10.50
2023-01-11T13:35:36.580Z,10.50
2023-01-11T13:36:43.442Z,10.60
2023-01-11T13:38:09.774Z,10.60
2023-01-11T13:39:28.537Z,10.60
2023-01-11T13:40:36.954Z,10.70
2023-01-11T13:41:44.990Z,10.70
2023-01-11T13:42:51.008Z,10.70
2023-01-11T13:44:10.729Z,10.70
2023-01-11T13:45:18.370Z,10.70
2023-01-11T13:46:43.770Z,10.70
2023-01-11T13:47:51.189Z,10.70
2023-01-11T13:49:00.424Z,10.70
2023-01-11T13:50:27.079Z,10.70
2023-01-11T13:51:41.484Z,10.70
2023-01-11T13:53:13.369Z,10.70
2023-01-11T13:54:39.170Z,10.70
2023-01-11T13:55:55.703Z,10.70
2023-01-11T13:57:13.513Z,10.60
2023-01-11T13:58:36.961Z,10.70
2023-01-11T13:59:49.119Z,10.60
2023-01-11T14:01:10.156Z,10.60
2023-01-11T14:02:17.380Z,10.60
2023-01-11T14:03:27.751Z,10.60
2023-01-11T14:04:41.328Z,10.50
2023-01-11T14:06:33.013Z,10.50
2023-01-11T14:07:40.798Z,10.50
2023-01-11T14:09:08.946Z,10.50
2023-01-11T14:10:23.981Z,10.50
2023-01-11T14:11:46.096Z,10.40
2023-01-11T14:12:50.933Z,10.40
2023-01-11T14:14:18.124Z,10.40
2023-01-11T14:15:51.174Z,10.40
2023-01-11T14:17:01.682Z,10.30
2023-01-11T14:18:18.041Z,10.30
2023-01-11T14:19:45.090Z,10.30
2023-01-11T14:21:01.905Z,10.30
2023-01-11T14:22:12.820Z,10.30
2023-01-11T14:23:21.042Z,10.30
2023-01-11T14:24:23.693Z,10.30
2023-01-11T14:25:25.784Z,10.30
2023-01-11T14:26:46.487Z,10.20
2023-01-11T14:27:51.328Z,10.20
2023-01-11T14:29:19.675Z,10.20
2023-01-11T14:30:37.200Z,10.20
2023-01-11T14:31:44.841Z,10.20
2023-01-11T14:33:14.969Z,10.20
2023-01-11T14:34:32.914Z,10.10
2023-01-11T14:35:57.338Z,10.10
2023-01-11T14:37:05.035Z,10.10
2023-01-11T14:38:41.309Z,10.10
2023-01-11T14:40:02.260Z,10.10
2023-01-11T14:41:11.946Z,10.10
2023-01-11T14:42:55.146Z,10.10
2023-01-11T14:44:33.524Z,10.10
2023-01-11T14:45:52.733Z,10.10
2023-01-11T14:47:19.020Z,10.10
2023-01-11T14:49:03.194Z,10.10
2023-01-11T14:50:16.158Z,10.10
2023-01-11T14:51:44.907Z,10.10
2023-01-11T14:52:48.331Z,10.10
2023-01-11T14:53:55.099Z,10.10
2023-01-11T14:55:01.486Z,10.10
2023-01-11T14:56:03.351Z,10.10
2023-01-11T14:57:05.388Z,10.10
2023-01-11T14:58:27.869Z,10.10
2023-01-11T14:59:41.556Z,10.10
2023-01-11T15:00:43.296Z,10.00
2023-01-11T15:02:06.029Z,10.00